Time;durP1;ratioP1;P1;durP2;ratioP2;P2;SDS_P1;SDS_P2;PMS_P1;PMS_P2;Temp;Humidity;BMP_temperature;BMP_pressure;BME280_temperature;BME280_humidity;BME280_pressure;Samples;Min_cycle;Max_cycle;Signal;HPM_P1;HPM_P2
2022/07/16 00:03:07;;;;;;;4.10;2.70;;;;;;;;;;5039652;28;20550;-74
2022/07/16 00:05:34;;;;;;;5.10;3.28;;;;;;;;;;5040768;28;20418;-75
2022/07/16 00:08:01;;;;;;;3.78;2.92;;;;;;;;;;5039724;28;20428;-74
2022/07/16 00:10:27;;;;;;;8.27;2.63;;;;;;;;;;5040608;28;20430;-74
2022/07/16 00:12:53;;;;;;;6.18;2.83;;;;;;;;;;5039157;28;20427;-74
2022/07/16 00:15:20;;;;;;;3.30;3.00;;;;;;;;;;5039614;28;20409;-74
2022/07/16 00:17:46;;;;;;;4.50;3.05;;;;;;;;;;5039130;28;20775;-74
2022/07/16 00:20:11;;;;;;;5.10;2.90;;;;;;;;;;5040121;28;20436;-74
2022/07/16 00:22:39;;;;;;;4.13;3.17;;;;;;;;;;5039289;28;20776;-74
2022/07/16 00:25:06;;;;;;;4.40;3.05;;;;;;;;;;5039450;28;20415;-76
2022/07/16 00:27:32;;;;;;;4.30;3.03;;;;;;;;;;5038894;28;20416;-76
2022/07/16 00:29:59;;;;;;;5.22;3.13;;;;;;;;;;5038190;28;20417;-76
2022/07/16 00:32:25;;;;;;;5.40;3.40;;;;;;;;;;5038919;28;20402;-76
2022/07/16 00:37:21;;;;;;;8.27;3.42;;;;;;;;;;5038010;28;20437;-76
2022/07/16 00:39:48;;;;;;;4.20;2.60;;;;;;;;;;5039877;28;20446;-76
2022/07/16 00:42:15;;;;;;;5.55;3.03;;;;;;;;;;5039509;28;20422;-77
2022/07/16 00:44:41;;;;;;;4.18;2.90;;;;;;;;;;5040275;28;20422;-75
2022/07/16 00:47:07;;;;;;;4.13;2.70;;;;;;;;;;5057084;28;20417;-75
2022/07/16 00:49:33;;;;;;;5.40;3.20;;;;;;;;;;5060077;28;20413;-76
2022/07/16 00:52:00;;;;;;;3.70;2.53;;;;;;;;;;5060038;28;20414;-76
2022/07/16 00:54:26;;;;;;;3.70;2.90;;;;;;;;;;5058174;28;20429;-75
2022/07/16 00:56:54;;;;;;;4.03;2.70;;;;;;;;;;5057639;28;20425;-76
2022/07/16 00:59:20;;;;;;;4.10;2.87;;;;;;;;;;5057001;28;20773;-76
2022/07/16 01:01:46;;;;;;;2.83;2.55;;;;;;;;;;5054704;28;20438;-76
2022/07/16 01:04:14;;;;;;;5.35;2.90;;;;;;;;;;5056016;28;20411;-76
2022/07/16 01:06:41;;;;;;;5.60;2.88;;;;;;;;;;5058492;28;20445;-76
2022/07/16 01:09:07;;;;;;;3.80;2.85;;;;;;;;;;5057400;28;20887;-75
2022/07/16 01:11:34;;;;;;;4.35;2.80;;;;;;;;;;5058212;28;20413;-76
2022/07/16 01:14:03;;;;;;;4.28;2.92;;;;;;;;;;5057922;28;20426;-75
2022/07/16 01:16:29;;;;;;;4.57;3.03;;;;;;;;;;5058384;28;20415;-75
2022/07/16 01:18:55;;;;;;;2.97;2.57;;;;;;;;;;5057142;28;20421;-76
2022/07/16 01:21:22;;;;;;;5.28;2.70;;;;;;;;;;5057390;28;20424;-76
2022/07/16 01:23:49;;;;;;;4.55;2.95;;;;;;;;;;5057108;28;20420;-75
2022/07/16 01:26:16;;;;;;;4.30;2.90;;;;;;;;;;5056081;28;20713;-76
2022/07/16 01:28:42;;;;;;;4.07;2.90;;;;;;;;;;5055927;28;20998;-76
2022/07/16 01:31:08;;;;;;;4.30;3.10;;;;;;;;;;5056673;28;20408;-75
2022/07/16 01:33:36;;;;;;;6.45;3.60;;;;;;;;;;5057342;28;20417;-75
2022/07/16 01:36:03;;;;;;;3.95;2.90;;;;;;;;;;5056807;28;20425;-75
2022/07/16 01:38:30;;;;;;;5.55;3.38;;;;;;;;;;5054720;28;20428;-75
2022/07/16 01:40:58;;;;;;;6.10;3.20;;;;;;;;;;5057950;28;20440;-76
2022/07/16 01:43:26;;;;;;;5.80;3.60;;;;;;;;;;5055490;28;21221;-75
2022/07/16 01:45:53;;;;;;;7.38;3.80;;;;;;;;;;5058285;28;20419;-76
2022/07/16 01:48:20;;;;;;;5.33;3.80;;;;;;;;;;5055435;28;20425;-76
2022/07/16 01:50:47;;;;;;;4.90;3.93;;;;;;;;;;5058235;28;20426;-76
2022/07/16 01:53:14;;;;;;;6.22;3.83;;;;;;;;;;5057447;28;20452;-76
2022/07/16 01:55:40;;;;;;;6.82;4.40;;;;;;;;;;5057802;28;20942;-75
2022/07/16 01:58:09;;;;;;;6.40;4.37;;;;;;;;;;5056748;28;20413;-75
2022/07/16 02:00:36;;;;;;;6.70;4.65;;;;;;;;;;5056465;28;20437;-75
2022/07/16 02:03:03;;;;;;;6.20;4.88;;;;;;;;;;5055303;28;20413;-76
2022/07/16 02:05:29;;;;;;;9.32;4.85;;;;;;;;;;5058783;28;20427;-76
2022/07/16 02:07:55;;;;;;;4.90;4.50;;;;;;;;;;5056085;28;20417;-76
2022/07/16 02:10:22;;;;;;;4.90;4.40;;;;;;;;;;5058418;28;20501;-76
2022/07/16 02:12:48;;;;;;;6.65;4.40;;;;;;;;;;5056158;28;20505;-76
2022/07/16 02:15:16;;;;;;;6.88;4.50;;;;;;;;;;5056580;28;20412;-75
2022/07/16 02:17:42;;;;;;;8.80;4.40;;;;;;;;;;5055120;28;20428;-76
2022/07/16 02:20:09;;;;;;;6.28;4.82;;;;;;;;;;5056605;28;20842;-76
2022/07/16 02:22:35;;;;;;;7.13;4.60;;;;;;;;;;5055646;28;20490;-75
2022/07/16 02:25:03;;;;;;;6.73;4.63;;;;;;;;;;5056007;28;20407;-75
2022/07/16 02:27:29;;;;;;;5.75;4.70;;;;;;;;;;5056657;28;20426;-75
2022/07/16 02:29:55;;;;;;;5.20;4.70;;;;;;;;;;5055795;28;20416;-76
2022/07/16 02:32:23;;;;;;;5.22;4.47;;;;;;;;;;5056472;28;20875;-76
2022/07/16 02:34:49;;;;;;;5.95;4.70;;;;;;;;;;5055312;28;20813;-76
2022/07/16 02:37:16;;;;;;;7.93;4.85;;;;;;;;;;5055826;28;20781;-76
2022/07/16 02:39:42;;;;;;;5.90;4.75;;;;;;;;;;5055840;28;20765;-76
2022/07/16 02:42:08;;;;;;;4.90;4.28;;;;;;;;;;5054559;28;20893;-76
2022/07/16 02:44:35;;;;;;;6.93;4.60;;;;;;;;;;5056942;28;20403;-76
2022/07/16 02:47:01;;;;;;;8.30;4.55;;;;;;;;;;5054903;28;20412;-76
2022/07/16 02:49:29;;;;;;;5.43;4.32;;;;;;;;;;5055212;28;20428;-76
2022/07/16 02:51:55;;;;;;;8.53;4.70;;;;;;;;;;5057688;28;20418;-76
2022/07/16 02:54:21;;;;;;;6.75;4.65;;;;;;;;;;5055536;28;20426;-76
2022/07/16 02:56:47;;;;;;;6.80;4.90;;;;;;;;;;5056584;28;20432;-76
2022/07/16 02:59:14;;;;;;;7.95;5.50;;;;;;;;;;5055816;28;20426;-75
2022/07/16 03:01:40;;;;;;;7.70;4.63;;;;;;;;;;5055202;28;20896;-76
2022/07/16 03:04:06;;;;;;;7.38;4.88;;;;;;;;;;5054881;28;20411;-76
2022/07/16 03:06:34;;;;;;;7.70;4.60;;;;;;;;;;5057139;28;20438;-76
2022/07/16 03:09:00;;;;;;;7.90;4.75;;;;;;;;;;5056162;28;20840;-76
2022/07/16 03:11:27;;;;;;;6.28;4.90;;;;;;;;;;5059242;28;20419;-76
2022/07/16 03:13:53;;;;;;;7.30;4.40;;;;;;;;;;5059677;28;20451;-76
2022/07/16 03:16:19;;;;;;;6.53;4.60;;;;;;;;;;5060912;28;20761;-76
2022/07/16 03:18:45;;;;;;;5.97;4.50;;;;;;;;;;5059670;28;20416;-76
2022/07/16 03:21:12;;;;;;;8.02;4.60;;;;;;;;;;5060508;28;20411;-76
2022/07/16 03:23:39;;;;;;;7.80;4.20;;;;;;;;;;5057772;28;20417;-76
2022/07/16 03:26:06;;;;;;;8.02;4.43;;;;;;;;;;5058880;28;20502;-77
2022/07/16 03:28:32;;;;;;;5.20;4.40;;;;;;;;;;5057996;28;20423;-76
2022/07/16 03:30:58;;;;;;;9.20;4.88;;;;;;;;;;5058906;28;20419;-76
2022/07/16 03:33:25;;;;;;;7.07;4.88;;;;;;;;;;5059885;28;20415;-76
2022/07/16 03:35:51;;;;;;;8.43;5.10;;;;;;;;;;5060518;28;20419;-76
2022/07/16 03:41:03;;;;;;;8.38;5.03;;;;;;;;;;5060322;28;20394;-76
2022/07/16 03:43:29;;;;;;;8.23;6.57;;;;;;;;;;5057588;28;20416;-76
2022/07/16 03:45:55;;;;;;;9.95;7.10;;;;;;;;;;5059905;28;20413;-76
2022/07/16 03:48:22;;;;;;;11.43;6.03;;;;;;;;;;5058302;28;20415;-76
2022/07/16 03:50:48;;;;;;;8.75;6.30;;;;;;;;;;5058640;28;20420;-76
2022/07/16 03:53:14;;;;;;;10.73;7.57;;;;;;;;;;5058329;28;20909;-76
2022/07/16 03:55:41;;;;;;;10.57;8.73;;;;;;;;;;5059926;28;20433;-76
2022/07/16 03:58:08;;;;;;;12.88;9.32;;;;;;;;;;5057628;28;20425;-76
2022/07/16 04:00:34;;;;;;;13.32;9.52;;;;;;;;;;5058620;28;20909;-76
2022/07/16 04:03:01;;;;;;;11.80;9.00;;;;;;;;;;5058508;28;20420;-76
2022/07/16 04:05:27;;;;;;;14.30;8.65;;;;;;;;;;5059063;28;20412;-76
2022/07/16 04:07:53;;;;;;;10.95;7.15;;;;;;;;;;5059816;28;20416;-76
2022/07/16 04:10:20;;;;;;;8.90;5.90;;;;;;;;;;5060098;28;20411;-76
2022/07/16 04:12:46;;;;;;;9.60;5.32;;;;;;;;;;5058204;28;20443;-76
2022/07/16 04:15:14;;;;;;;5.65;3.83;;;;;;;;;;5059562;28;20421;-76
2022/07/16 04:17:40;;;;;;;5.38;3.75;;;;;;;;;;5059114;28;20420;-76
2022/07/16 04:20:07;;;;;;;4.53;3.20;;;;;;;;;;5060604;28;20775;-77
2022/07/16 04:22:33;;;;;;;8.02;3.20;;;;;;;;;;5058407;28;20779;-76
2022/07/16 04:24:59;;;;;;;6.00;3.37;;;;;;;;;;5059110;28;20796;-77
2022/07/16 04:27:26;;;;;;;5.50;2.80;;;;;;;;;;5057829;28;20888;-75
2022/07/16 04:29:52;;;;;;;5.38;2.80;;;;;;;;;;5058732;28;20444;-76
2022/07/16 04:32:21;;;;;;;7.67;3.40;;;;;;;;;;5059505;28;20481;-75
2022/07/16 04:34:47;;;;;;;7.80;3.30;;;;;;;;;;5058997;28;20473;-75
2022/07/16 04:37:14;;;;;;;7.50;4.07;;;;;;;;;;5058309;28;20420;-75
2022/07/16 04:39:40;;;;;;;7.22;4.45;;;;;;;;;;5059633;28;20787;-75
2022/07/16 04:42:07;;;;;;;7.78;4.78;;;;;;;;;;5057866;28;20420;-76
2022/07/16 04:44:33;;;;;;;9.75;5.07;;;;;;;;;;5059073;28;20413;-77
2022/07/16 04:46:59;;;;;;;7.83;5.80;;;;;;;;;;5057171;28;20421;-77
2022/07/16 04:49:27;;;;;;;8.30;4.75;;;;;;;;;;5059663;28;20412;-76
2022/07/16 04:51:53;;;;;;;8.63;4.43;;;;;;;;;;5058263;28;20422;-77
2022/07/16 04:54:20;;;;;;;7.82;5.43;;;;;;;;;;5058251;28;20440;-76
2022/07/16 04:56:46;;;;;;;9.60;4.95;;;;;;;;;;5058439;28;20447;-77
2022/07/16 04:59:12;;;;;;;9.37;3.80;;;;;;;;;;5055841;28;20425;-76
2022/07/16 05:01:39;;;;;;;8.85;3.90;;;;;;;;;;5057115;28;20424;-76
2022/07/16 05:04:05;;;;;;;6.13;2.60;;;;;;;;;;5056785;28;20415;-76
2022/07/16 05:06:32;;;;;;;6.25;2.97;;;;;;;;;;5057898;28;20474;-76
2022/07/16 05:09:01;;;;;;;5.25;2.78;;;;;;;;;;5056854;28;20419;-77
2022/07/16 05:11:27;;;;;;;9.43;2.70;;;;;;;;;;5059025;28;20943;-77
2022/07/16 05:13:53;;;;;;;4.77;2.40;;;;;;;;;;5057908;28;20425;-76
2022/07/16 05:16:20;;;;;;;6.50;3.03;;;;;;;;;;5058443;28;20475;-76
2022/07/16 05:18:46;;;;;;;6.90;3.90;;;;;;;;;;5055779;28;20423;-77
2022/07/16 05:21:13;;;;;;;12.43;5.50;;;;;;;;;;5054771;28;20425;-77
2022/07/16 05:23:40;;;;;;;7.45;4.57;;;;;;;;;;5057604;28;20428;-76
2022/07/16 05:26:07;;;;;;;8.27;3.58;;;;;;;;;;5056585;28;20413;-77
2022/07/16 05:28:33;;;;;;;8.65;4.55;;;;;;;;;;5056610;28;20411;-76
2022/07/16 05:31:00;;;;;;;10.07;6.35;;;;;;;;;;5057499;28;20452;-76
2022/07/16 05:33:26;;;;;;;11.40;6.80;;;;;;;;;;5054021;28;20417;-76
2022/07/16 05:35:52;;;;;;;9.88;5.18;;;;;;;;;;5055922;28;20435;-76
2022/07/16 05:38:19;;;;;;;10.13;4.23;;;;;;;;;;5057702;28;20921;-75
2022/07/16 05:40:46;;;;;;;7.93;3.20;;;;;;;;;;5057872;28;20428;-75
2022/07/16 05:43:13;;;;;;;8.30;3.60;;;;;;;;;;5055299;28;20421;-75
2022/07/16 05:45:39;;;;;;;7.43;2.72;;;;;;;;;;5057681;28;20420;-76
2022/07/16 05:48:05;;;;;;;6.47;2.53;;;;;;;;;;5054833;28;20424;-76
2022/07/16 05:50:32;;;;;;;4.27;2.23;;;;;;;;;;5058742;28;20421;-75
2022/07/16 05:52:58;;;;;;;7.50;3.00;;;;;;;;;;5055824;28;20425;-76
2022/07/16 05:55:24;;;;;;;5.20;2.30;;;;;;;;;;5058502;28;20961;-74
2022/07/16 05:57:52;;;;;;;5.87;2.63;;;;;;;;;;5055838;28;20439;-76
2022/07/16 06:00:19;;;;;;;5.38;2.28;;;;;;;;;;5058164;28;20421;-76
2022/07/16 06:02:45;;;;;;;5.25;2.88;;;;;;;;;;5054678;28;20524;-76
2022/07/16 06:05:11;;;;;;;7.10;2.53;;;;;;;;;;5055796;28;20405;-77
2022/07/16 06:07:38;;;;;;;5.40;2.40;;;;;;;;;;5056836;28;20405;-76
2022/07/16 06:10:05;;;;;;;7.18;2.70;;;;;;;;;;5057099;28;20429;-76
2022/07/16 06:12:31;;;;;;;5.90;2.50;;;;;;;;;;5055428;28;20509;-76
2022/07/16 06:14:58;;;;;;;5.28;2.50;;;;;;;;;;5057183;28;20432;-76
2022/07/16 06:17:29;;;;;;;3.80;2.30;;;;;;;;;;5055832;28;21008;-76
2022/07/16 06:19:56;;;;;;;6.10;1.83;;;;;;;;;;5055737;28;20469;-76
2022/07/16 06:22:22;;;;;;;5.60;2.20;;;;;;;;;;5055593;28;20481;-76
2022/07/16 06:24:48;;;;;;;7.35;2.15;;;;;;;;;;5055355;28;20413;-76
2022/07/16 06:27:14;;;;;;;4.85;1.95;;;;;;;;;;5055885;28;20409;-76
2022/07/16 06:29:41;;;;;;;9.43;2.50;;;;;;;;;;5057124;28;20777;-76
2022/07/16 06:32:08;;;;;;;6.03;2.30;;;;;;;;;;5054975;28;20417;-77
2022/07/16 06:34:35;;;;;;;6.78;2.22;;;;;;;;;;5054459;28;20778;-76
2022/07/16 06:37:01;;;;;;;6.68;2.40;;;;;;;;;;5071676;22;20947;-74
2022/07/16 06:39:27;;;;;;;8.83;2.47;;;;;;;;;;5056899;28;20415;-74
2022/07/16 06:41:54;;;;;;;6.50;2.38;;;;;;;;;;5057518;28;20442;-74
2022/07/16 06:44:20;;;;;;;10.23;2.50;;;;;;;;;;5054302;28;20900;-74
2022/07/16 06:46:46;;;;;;;6.70;2.25;;;;;;;;;;5055634;28;20417;-74
2022/07/16 06:49:14;;;;;;;8.30;2.50;;;;;;;;;;5056149;28;20904;-77
2022/07/16 06:51:40;;;;;;;7.22;2.20;;;;;;;;;;5057589;28;20420;-77
2022/07/16 06:54:07;;;;;;;6.10;1.80;;;;;;;;;;5056651;28;20412;-77
2022/07/16 06:56:33;;;;;;;8.18;2.28;;;;;;;;;;5057213;28;20438;-77
2022/07/16 06:59:00;;;;;;;8.57;2.25;;;;;;;;;;5054843;28;20417;-74
2022/07/16 07:01:26;;;;;;;9.65;2.30;;;;;;;;;;5055753;28;20424;-74
2022/07/16 07:03:52;;;;;;;6.85;2.30;;;;;;;;;;5056286;28;20426;-74
2022/07/16 07:06:20;;;;;;;7.47;2.40;;;;;;;;;;5056137;28;20414;-74
2022/07/16 07:08:47;;;;;;;5.97;2.00;;;;;;;;;;5053955;28;20417;-74
2022/07/16 07:11:13;;;;;;;5.63;2.10;;;;;;;;;;5055586;28;20444;-74
2022/07/16 07:13:40;;;;;;;5.23;2.00;;;;;;;;;;5056343;28;20419;-74
2022/07/16 07:16:06;;;;;;;9.10;1.88;;;;;;;;;;5055683;28;20425;-74
2022/07/16 07:18:33;;;;;;;6.80;1.63;;;;;;;;;;5055712;28;20439;-74
2022/07/16 07:21:00;;;;;;;8.60;1.90;;;;;;;;;;5055810;28;20411;-74
2022/07/16 07:23:27;;;;;;;6.40;1.80;;;;;;;;;;5056378;28;20421;-74
2022/07/16 07:25:54;;;;;;;6.93;1.70;;;;;;;;;;5055781;28;20405;-74
2022/07/16 07:28:20;;;;;;;8.10;1.88;;;;;;;;;;5055431;28;20420;-74
2022/07/16 07:30:46;;;;;;;8.32;1.60;;;;;;;;;;5055284;28;20415;-73
2022/07/16 07:33:14;;;;;;;6.32;1.80;;;;;;;;;;5053779;28;20432;-74
2022/07/16 07:35:40;;;;;;;5.60;2.20;;;;;;;;;;5055083;28;20498;-74
2022/07/16 07:38:06;;;;;;;6.63;1.80;;;;;;;;;;5056371;28;20413;-74
2022/07/16 07:40:34;;;;;;;5.32;1.67;;;;;;;;;;5056267;28;20419;-74
2022/07/16 07:43:00;;;;;;;4.75;1.50;;;;;;;;;;5053796;28;20913;-74
2022/07/16 07:45:27;;;;;;;4.20;1.27;;;;;;;;;;5055743;28;20413;-74
2022/07/16 07:47:53;;;;;;;4.50;1.60;;;;;;;;;;5051872;28;20433;-74
2022/07/16 07:50:19;;;;;;;8.43;1.55;;;;;;;;;;5056205;28;20411;-74
2022/07/16 07:52:46;;;;;;;4.77;1.60;;;;;;;;;;5055311;28;20407;-74
2022/07/16 07:55:12;;;;;;;7.05;1.67;;;;;;;;;;5055923;28;20467;-74
2022/07/16 07:57:40;;;;;;;7.57;1.70;;;;;;;;;;5056095;28;20414;-74
2022/07/16 08:00:08;;;;;;;8.30;2.10;;;;;;;;;;5058768;28;20417;-74
2022/07/16 08:02:34;;;;;;;6.07;2.00;;;;;;;;;;5057158;28;20447;-74
2022/07/16 08:05:01;;;;;;;6.85;2.00;;;;;;;;;;5058934;28;20405;-74
2022/07/16 08:07:27;;;;;;;7.15;1.83;;;;;;;;;;5059194;28;20509;-74
2022/07/16 08:09:53;;;;;;;7.50;2.20;;;;;;;;;;5057535;28;20416;-74
2022/07/16 08:12:20;;;;;;;7.72;1.95;;;;;;;;;;5058604;28;20895;-74
2022/07/16 08:14:47;;;;;;;5.40;1.50;;;;;;;;;;5058998;28;20418;-73
2022/07/16 08:17:14;;;;;;;8.30;2.23;;;;;;;;;;5058387;28;20421;-73
2022/07/16 08:19:40;;;;;;;9.18;2.20;;;;;;;;;;5058974;28;20418;-73
2022/07/16 08:22:06;;;;;;;8.13;1.80;;;;;;;;;;5056827;28;20417;-74
2022/07/16 08:27:17;;;;;;;5.68;1.63;;;;;;;;;;5057258;28;20392;-74
2022/07/16 08:29:43;;;;;;;4.55;1.67;;;;;;;;;;5059506;28;20480;-74
2022/07/16 08:32:11;;;;;;;5.80;1.80;;;;;;;;;;5056474;28;20433;-74
2022/07/16 08:34:37;;;;;;;4.82;1.48;;;;;;;;;;5057262;28;20465;-74
2022/07/16 08:37:05;;;;;;;7.47;1.77;;;;;;;;;;5056405;28;20433;-74
2022/07/16 08:39:32;;;;;;;5.93;2.03;;;;;;;;;;5057128;28;20418;-76
2022/07/16 08:41:58;;;;;;;12.38;2.33;;;;;;;;;;5056390;28;20435;-76
2022/07/16 08:44:24;;;;;;;8.77;2.00;;;;;;;;;;5057630;28;20932;-77
2022/07/16 08:46:52;;;;;;;7.25;1.85;;;;;;;;;;5057411;28;20411;-76
2022/07/16 08:49:20;;;;;;;6.20;2.15;;;;;;;;;;5057784;28;20413;-76
2022/07/16 08:51:47;;;;;;;6.55;2.10;;;;;;;;;;5058232;28;20423;-76
2022/07/16 08:54:14;;;;;;;9.02;2.05;;;;;;;;;;5056383;28;20432;-76
2022/07/16 08:56:42;;;;;;;8.52;2.00;;;;;;;;;;5056480;28;20921;-77
2022/07/16 08:59:09;;;;;;;7.28;2.30;;;;;;;;;;5057480;28;20428;-77
2022/07/16 09:01:35;;;;;;;8.70;2.10;;;;;;;;;;5058179;28;20428;-77
2022/07/16 09:04:03;;;;;;;8.43;2.03;;;;;;;;;;5055006;28;20924;-76
2022/07/16 09:06:31;;;;;;;13.27;2.23;;;;;;;;;;5057304;28;20414;-76
2022/07/16 09:08:57;;;;;;;8.07;1.70;;;;;;;;;;5057461;28;20922;-76
2022/07/16 09:11:25;;;;;;;5.65;1.70;;;;;;;;;;5056818;28;20868;-76
2022/07/16 09:14:01;;;;;;;8.00;2.10;;;;;;;;;;5057239;28;20429;-76
2022/07/16 09:16:28;;;;;;;6.85;2.20;;;;;;;;;;5055629;28;20497;-77
2022/07/16 09:19:01;;;;;;;5.28;1.50;;;;;;;;;;5056557;28;20448;-76
2022/07/16 09:21:27;;;;;;;7.95;1.52;;;;;;;;;;5056633;28;20413;-76
2022/07/16 09:23:55;;;;;;;6.40;2.00;;;;;;;;;;5056144;28;20429;-77
2022/07/16 09:26:24;;;;;;;6.53;2.10;;;;;;;;;;5056188;28;20411;-77
2022/07/16 09:28:51;;;;;;;9.70;2.17;;;;;;;;;;5055831;28;20793;-77
2022/07/16 09:31:31;;;;;;;8.63;2.20;;;;;;;;;;5057674;28;20416;-77
2022/07/16 09:34:00;;;;;;;3.97;1.52;;;;;;;;;;5057320;28;20448;-77
2022/07/16 09:36:26;;;;;;;10.05;2.30;;;;;;;;;;5053724;28;20425;-77
2022/07/16 09:38:53;;;;;;;5.50;1.92;;;;;;;;;;5057504;28;20421;-77
2022/07/16 09:41:22;;;;;;;8.63;2.20;;;;;;;;;;5054551;28;20808;-77
2022/07/16 09:43:48;;;;;;;3.70;1.90;;;;;;;;;;5058676;28;20420;-77
2022/07/16 09:46:16;;;;;;;5.63;2.10;;;;;;;;;;5056323;28;20405;-77
2022/07/16 09:48:42;;;;;;;9.17;2.20;;;;;;;;;;5057090;28;20421;-77
2022/07/16 09:51:20;;;;;;;5.47;1.50;;;;;;;;;;5057141;28;20441;-77
2022/07/16 09:53:47;;;;;;;7.47;1.80;;;;;;;;;;5057272;28;20920;-77
2022/07/16 09:56:14;;;;;;;8.02;2.25;;;;;;;;;;5056210;28;20433;-77
2022/07/16 09:58:44;;;;;;;5.05;1.70;;;;;;;;;;5056870;28;20419;-77
2022/07/16 10:01:11;;;;;;;7.05;1.67;;;;;;;;;;5055409;28;20440;-77
2022/07/16 10:03:37;;;;;;;6.25;1.67;;;;;;;;;;5058088;28;20411;-77
2022/07/16 10:06:03;;;;;;;9.30;2.05;;;;;;;;;;5056862;28;20415;-77
2022/07/16 10:08:31;;;;;;;6.78;1.85;;;;;;;;;;5056944;28;20426;-77
2022/07/16 10:10:57;;;;;;;4.88;1.60;;;;;;;;;;5056174;28;20970;-77
2022/07/16 10:13:25;;;;;;;8.55;1.60;;;;;;;;;;5057784;28;20419;-77
2022/07/16 10:15:53;;;;;;;5.82;1.80;;;;;;;;;;5055935;28;20516;-77
2022/07/16 10:18:36;;;;;;;6.10;1.65;;;;;;;;;;5057509;28;20428;-74
2022/07/16 10:21:06;;;;;;;7.15;1.60;;;;;;;;;;5055964;28;20416;-74
2022/07/16 10:23:33;;;;;;;9.63;2.05;;;;;;;;;;5056576;28;20788;-74
2022/07/16 10:26:00;;;;;;;7.70;1.88;;;;;;;;;;5054889;28;20418;-75
2022/07/16 10:28:37;;;;;;;5.05;1.90;;;;;;;;;;5054738;28;20420;-74
2022/07/16 10:31:18;;;;;;;6.72;1.73;;;;;;;;;;5056819;28;20413;-74
2022/07/16 10:33:46;;;;;;;7.35;2.00;;;;;;;;;;5055370;28;20414;-74
2022/07/16 10:36:12;;;;;;;6.18;1.90;;;;;;;;;;5055086;28;20433;-74
2022/07/16 10:38:59;;;;;;;7.90;1.92;;;;;;;;;;5055262;28;20937;-75
2022/07/16 10:41:27;;;;;;;5.30;1.77;;;;;;;;;;5055903;28;20896;-75
2022/07/16 10:44:08;;;;;;;8.20;1.60;;;;;;;;;;5056749;28;20427;-75
2022/07/16 10:46:34;;;;;;;11.55;2.42;;;;;;;;;;5056864;28;20413;-75
2022/07/16 10:49:15;;;;;;;4.05;1.50;;;;;;;;;;5055274;28;20429;-75
2022/07/16 10:51:54;;;;;;;6.63;1.80;;;;;;;;;;5055961;28;20410;-74
2022/07/16 10:54:20;;;;;;;6.90;1.63;;;;;;;;;;5054995;28;20429;-74
2022/07/16 10:56:47;;;;;;;7.10;1.77;;;;;;;;;;5055663;28;20901;-75
2022/07/16 10:59:14;;;;;;;7.95;1.98;;;;;;;;;;5053860;28;20422;-75
2022/07/16 11:01:41;;;;;;;6.72;1.80;;;;;;;;;;5056662;28;20510;-74
2022/07/16 11:04:09;;;;;;;6.30;1.70;;;;;;;;;;5056056;28;20417;-74
2022/07/16 11:06:37;;;;;;;5.40;1.67;;;;;;;;;;5055170;28;20785;-74
2022/07/16 11:09:04;;;;;;;4.75;1.20;;;;;;;;;;5056014;28;20413;-74
2022/07/16 11:11:32;;;;;;;3.97;1.33;;;;;;;;;;5057450;28;20421;-75
2022/07/16 11:13:59;;;;;;;4.53;1.40;;;;;;;;;;5054820;28;20409;-74
2022/07/16 11:16:25;;;;;;;7.10;1.40;;;;;;;;;;5056730;28;20763;-74
2022/07/16 11:18:51;;;;;;;4.93;1.20;;;;;;;;;;5055835;28;20956;-75
2022/07/16 11:21:18;;;;;;;5.93;1.20;;;;;;;;;;5057495;28;20413;-74
2022/07/16 11:23:49;;;;;;;4.00;1.60;;;;;;;;;;5054810;28;20413;-74
2022/07/16 11:26:16;;;;;;;5.20;1.40;;;;;;;;;;5055663;28;20417;-74
2022/07/16 11:28:52;;;;;;;4.72;1.70;;;;;;;;;;5056224;28;20444;-74
2022/07/16 11:31:24;;;;;;;5.45;1.30;;;;;;;;;;5056806;28;20416;-75
2022/07/16 11:33:50;;;;;;;6.13;1.60;;;;;;;;;;5060145;28;20420;-75
2022/07/16 11:36:16;;;;;;;6.07;1.55;;;;;;;;;;5059892;28;20425;-74
2022/07/16 11:38:43;;;;;;;5.30;1.60;;;;;;;;;;5059798;28;20415;-75
2022/07/16 11:41:11;;;;;;;6.38;1.88;;;;;;;;;;5059167;28;20424;-75
2022/07/16 11:43:37;;;;;;;6.18;1.48;;;;;;;;;;5059589;28;20436;-76
2022/07/16 11:46:04;;;;;;;4.93;1.60;;;;;;;;;;5057569;28;20425;-75
2022/07/16 11:48:35;;;;;;;4.50;1.20;;;;;;;;;;5059645;28;20409;-75
2022/07/16 11:51:06;;;;;;;6.13;1.73;;;;;;;;;;5059048;28;20411;-74
2022/07/16 11:53:34;;;;;;;6.70;1.38;;;;;;;;;;5060510;28;20415;-74
2022/07/16 11:56:00;;;;;;;6.75;1.60;;;;;;;;;;5058521;28;20927;-75
2022/07/16 11:58:28;;;;;;;4.20;1.50;;;;;;;;;;5060204;28;20419;-74
2022/07/16 12:00:54;;;;;;;8.07;1.90;;;;;;;;;;5057975;28;20758;-75
2022/07/16 12:03:21;;;;;;;4.82;1.52;;;;;;;;;;5059172;28;20927;-74
2022/07/16 12:05:47;;;;;;;5.45;1.77;;;;;;;;;;5059291;28;21113;-74
2022/07/16 12:08:14;;;;;;;4.50;1.52;;;;;;;;;;5057915;28;20482;-74
2022/07/16 12:10:41;;;;;;;7.28;1.92;;;;;;;;;;5058077;28;20504;-75
2022/07/16 12:13:09;;;;;;;6.07;1.40;;;;;;;;;;5057688;28;20980;-74
2022/07/16 12:15:50;;;;;;;3.58;1.65;;;;;;;;;;5057896;28;20511;-75
2022/07/16 12:18:18;;;;;;;4.82;1.50;;;;;;;;;;5057601;28;20936;-74
2022/07/16 12:20:45;;;;;;;6.40;1.85;;;;;;;;;;5057913;28;20470;-75
2022/07/16 12:23:13;;;;;;;6.38;1.70;;;;;;;;;;5057147;28;20428;-74
2022/07/16 12:25:40;;;;;;;6.28;1.88;;;;;;;;;;5058485;28;20448;-74
2022/07/16 12:28:08;;;;;;;5.57;1.52;;;;;;;;;;5058273;28;20424;-74
2022/07/16 12:30:37;;;;;;;5.50;1.50;;;;;;;;;;5059047;28;20881;-74
2022/07/16 12:33:04;;;;;;;9.25;1.95;;;;;;;;;;5058609;28;20444;-74
2022/07/16 12:38:07;;;;;;;6.20;1.65;;;;;;;;;;5055301;28;20408;-75
2022/07/16 12:40:33;;;;;;;7.30;1.77;;;;;;;;;;5058573;28;20425;-75
2022/07/16 12:43:00;;;;;;;6.45;1.67;;;;;;;;;;5058103;28;20429;-75
2022/07/16 12:45:26;;;;;;;6.03;1.60;;;;;;;;;;5059025;28;20418;-75
2022/07/16 12:47:53;;;;;;;5.20;1.50;;;;;;;;;;5057855;28;20409;-75
2022/07/16 12:50:19;;;;;;;4.57;1.42;;;;;;;;;;5059464;28;20423;-75
2022/07/16 12:52:45;;;;;;;5.45;1.50;;;;;;;;;;5058572;28;20423;-75
2022/07/16 13:00:41;;;;;;;3.80;1.00;;;;;;;;;;5058772;28;20486;-75
2022/07/16 13:03:07;;;;;;;5.18;1.27;;;;;;;;;;5058682;28;20419;-75
2022/07/16 13:05:33;;;;;;;3.30;1.20;;;;;;;;;;5058885;28;20440;-75
2022/07/16 13:08:00;;;;;;;3.45;1.10;;;;;;;;;;5059278;28;20418;-75
2022/07/16 13:10:27;;;;;;;3.30;1.23;;;;;;;;;;5059152;28;20413;-75
2022/07/16 13:12:54;;;;;;;4.70;1.50;;;;;;;;;;5058872;28;20412;-75
2022/07/16 13:15:20;;;;;;;4.30;1.40;;;;;;;;;;5057962;28;20500;-75
2022/07/16 13:17:46;;;;;;;3.60;1.27;;;;;;;;;;5058995;28;20777;-75
2022/07/16 13:20:13;;;;;;;2.95;1.40;;;;;;;;;;5057993;28;20424;-75
2022/07/16 13:22:40;;;;;;;3.00;1.10;;;;;;;;;;5057975;28;20436;-75
2022/07/16 13:25:07;;;;;;;6.40;1.50;;;;;;;;;;5058220;28;20779;-76
2022/07/16 13:27:35;;;;;;;2.57;1.10;;;;;;;;;;5058021;28;20484;-75
2022/07/16 13:30:01;;;;;;;4.50;1.05;;;;;;;;;;5057665;28;20430;-75
2022/07/16 13:32:27;;;;;;;6.40;1.30;;;;;;;;;;5057136;28;20405;-75
2022/07/16 13:34:54;;;;;;;5.07;1.42;;;;;;;;;;5057442;28;20427;-76
2022/07/16 13:37:20;;;;;;;3.70;1.40;;;;;;;;;;5055715;28;20430;-76
2022/07/16 13:39:46;;;;;;;2.40;0.90;;;;;;;;;;5058118;28;20421;-75
2022/07/16 13:42:13;;;;;;;4.53;1.42;;;;;;;;;;5057432;28;20439;-76
2022/07/16 13:44:40;;;;;;;4.60;1.40;;;;;;;;;;5056945;28;20463;-75
2022/07/16 13:47:07;;;;;;;3.53;1.30;;;;;;;;;;5054649;28;21076;-76
2022/07/16 13:49:33;;;;;;;3.65;1.50;;;;;;;;;;5055248;28;20420;-75
2022/07/16 13:52:00;;;;;;;4.85;1.45;;;;;;;;;;5056494;28;20413;-76
2022/07/16 13:54:27;;;;;;;2.53;1.10;;;;;;;;;;5054756;28;20455;-76
2022/07/16 13:58:13;;;;;;;3.92;1.35;;;;;;;;;;5056339;28;20438;-76
2022/07/16 13:59:41;;;;;;;5.33;1.43;;;;;;;;;;5056070;28;20407;-75
2022/07/16 14:02:07;;;;;;;4.80;1.60;;;;;;;;;;5055731;28;20416;-75
2022/07/16 14:04:33;;;;;;;5.85;1.60;;;;;;;;;;5056276;28;20426;-75
2022/07/16 14:07:00;;;;;;;6.93;1.73;;;;;;;;;;5054791;28;20406;-75
2022/07/16 14:09:26;;;;;;;3.05;1.40;;;;;;;;;;5057458;28;20417;-75
2022/07/16 14:11:53;;;;;;;4.63;1.23;;;;;;;;;;5057237;28;20425;-76
2022/07/16 14:14:19;;;;;;;6.13;1.60;;;;;;;;;;5056172;28;20415;-75
2022/07/16 14:16:47;;;;;;;5.88;1.80;;;;;;;;;;5057977;28;20414;-75
2022/07/16 14:19:13;;;;;;;4.93;1.50;;;;;;;;;;5055807;28;20427;-76
2022/07/16 14:21:43;;;;;;;5.30;1.70;;;;;;;;;;5057726;28;20428;-76
2022/07/16 14:24:10;;;;;;;4.75;1.60;;;;;;;;;;5055018;28;20418;-76
2022/07/16 14:26:36;;;;;;;4.97;1.90;;;;;;;;;;5057343;28;20408;-75
2022/07/16 14:29:04;;;;;;;8.15;1.90;;;;;;;;;;5056341;28;20415;-76
2022/07/16 14:31:31;;;;;;;6.65;1.90;;;;;;;;;;5056967;28;20408;-75
2022/07/16 14:33:58;;;;;;;4.80;1.50;;;;;;;;;;5055839;28;20417;-75
2022/07/16 14:36:25;;;;;;;7.00;2.20;;;;;;;;;;5056465;28;20408;-75
2022/07/16 14:38:52;;;;;;;6.57;1.80;;;;;;;;;;5056238;28;20448;-76
2022/07/16 14:41:18;;;;;;;7.87;2.20;;;;;;;;;;5056278;28;20422;-75
2022/07/16 14:43:45;;;;;;;4.35;1.50;;;;;;;;;;5055279;28;20416;-75
2022/07/16 14:46:11;;;;;;;4.10;1.90;;;;;;;;;;5056131;28;20474;-75
2022/07/16 14:48:38;;;;;;;4.78;1.83;;;;;;;;;;5055517;28;20507;-76
2022/07/16 14:51:06;;;;;;;5.05;1.70;;;;;;;;;;5056457;28;20420;-75
2022/07/16 14:53:32;;;;;;;7.87;1.90;;;;;;;;;;5056856;28;20419;-75
2022/07/16 14:55:58;;;;;;;7.60;2.37;;;;;;;;;;5055892;28;20425;-75
2022/07/16 14:58:25;;;;;;;5.20;1.90;;;;;;;;;;5055639;28;20422;-76
2022/07/16 15:00:52;;;;;;;7.13;2.10;;;;;;;;;;5056837;28;20425;-75